Time;durP1;ratioP1;P1;durP2;ratioP2;P2;SDS_P1;SDS_P2;PMS_P1;PMS_P2;Temp;Humidity;BMP_temperature;BMP_pressure;BME280_temperature;BME280_humidity;BME280_pressure;Samples;Min_cycle;Max_cycle;Signal;HPM_P1;HPM_P2
2024/01/10 00:01:02;;;;;;;18.07;11.23;;;-0.90;99.90;;;;;;5033922;28;20224;-54
2024/01/10 00:03:29;;;;;;;17.40;11.03;;;-0.90;99.90;;;;;;5033817;28;20241;-54
2024/01/10 00:05:55;;;;;;;18.00;10.37;;;-0.90;99.90;;;;;;5033393;28;20226;-53
2024/01/10 00:08:24;;;;;;;17.20;10.67;;;-0.20;99.90;;;;;;5034069;28;20214;-55
2024/01/10 00:10:54;;;;;;;18.67;10.50;;;-0.70;99.90;;;;;;5033596;28;20334;-54
2024/01/10 00:13:20;;;;;;;17.17;11.00;;;-0.70;99.90;;;;;;5033341;28;20237;-54
2024/01/10 00:15:47;;;;;;;15.80;9.83;;;-0.70;99.90;;;;;;5033082;28;20280;-53
2024/01/10 00:18:14;;;;;;;19.67;11.27;;;-0.70;99.90;;;;;;5033104;28;20573;-53
2024/01/10 00:20:41;;;;;;;16.17;9.77;;;-0.60;99.90;;;;;;5033065;28;20246;-54
2024/01/10 00:23:08;;;;;;;16.20;10.20;;;-0.60;99.90;;;;;;5032995;28;20208;-54
2024/01/10 00:25:36;;;;;;;18.73;11.13;;;-0.60;99.90;;;;;;5033102;28;20255;-54
2024/01/10 00:28:02;;;;;;;17.97;10.77;;;-0.50;99.90;;;;;;5033425;28;20211;-60
2024/01/10 00:30:29;;;;;;;19.77;9.70;;;-0.50;99.90;;;;;;5032802;28;20260;-55
2024/01/10 00:32:56;;;;;;;17.93;9.97;;;-0.50;99.90;;;;;;5032687;28;20265;-54
2024/01/10 00:35:22;;;;;;;15.17;9.83;;;-0.40;99.90;;;;;;5032700;28;20276;-54
2024/01/10 00:37:49;;;;;;;16.00;10.17;;;-0.30;99.90;;;;;;5032831;28;20221;-54
2024/01/10 00:40:16;;;;;;;14.37;9.33;;;-0.20;99.90;;;;;;5032815;28;20226;-53
2024/01/10 00:42:44;;;;;;;15.37;9.17;;;-0.20;99.90;;;;;;5032822;28;20206;-54
2024/01/10 00:45:11;;;;;;;16.20;9.90;;;-0.10;99.90;;;;;;5024373;28;20264;-54
2024/01/10 00:47:37;;;;;;;15.60;9.43;;;-0.10;99.90;;;;;;5032604;28;20206;-54
2024/01/10 00:50:05;;;;;;;14.93;9.30;;;0.00;99.90;;;;;;5032648;28;20210;-54
2024/01/10 00:52:32;;;;;;;14.50;9.20;;;0.00;99.90;;;;;;5032869;28;20206;-54
2024/01/10 00:54:58;;;;;;;16.10;9.63;;;0.00;99.90;;;;;;5032466;28;20293;-54
2024/01/10 00:57:25;;;;;;;14.47;8.57;;;-0.10;99.90;;;;;;5032504;28;20230;-55
2024/01/10 00:59:53;;;;;;;15.70;9.53;;;-0.10;99.90;;;;;;5032211;28;20214;-53
2024/01/10 01:02:20;;;;;;;14.80;8.83;;;-0.10;99.90;;;;;;5032092;28;20218;-54
2024/01/10 01:04:46;;;;;;;13.50;8.57;;;-0.20;99.90;;;;;;5032190;28;20202;-54
2024/01/10 01:07:13;;;;;;;13.37;8.50;;;-0.30;99.90;;;;;;5032382;28;20256;-54
2024/01/10 01:09:40;;;;;;;15.00;8.33;;;-0.40;99.90;;;;;;5032197;28;20683;-53
2024/01/10 01:12:07;;;;;;;15.33;7.97;;;-0.40;99.90;;;;;;5032044;28;20676;-53
2024/01/10 01:14:33;;;;;;;15.63;8.33;;;-0.50;99.90;;;;;;5031744;28;20213;-54
2024/01/10 01:17:01;;;;;;;13.03;7.70;;;-0.50;99.90;;;;;;5031939;28;20226;-55
2024/01/10 01:19:28;;;;;;;13.73;8.60;;;-0.50;99.90;;;;;;5032206;28;20260;-55
2024/01/10 01:21:55;;;;;;;15.03;7.97;;;-0.60;99.90;;;;;;5031793;28;20219;-55
2024/01/10 01:24:21;;;;;;;19.10;9.53;;;-0.60;99.90;;;;;;5031916;28;20268;-55
2024/01/10 01:26:48;;;;;;;15.30;9.30;;;-0.70;99.90;;;;;;5031765;28;20222;-54
2024/01/10 01:29:15;;;;;;;15.20;9.23;;;-0.70;99.90;;;;;;5031117;28;20209;-55
2024/01/10 01:31:41;;;;;;;14.77;8.43;;;-0.70;99.90;;;;;;5031931;28;20209;-54
2024/01/10 01:34:09;;;;;;;13.17;8.37;;;-0.70;99.90;;;;;;5031740;28;20206;-51
2024/01/10 01:36:36;;;;;;;18.73;9.23;;;-0.70;99.90;;;;;;5032293;28;20254;-51
2024/01/10 01:39:03;;;;;;;15.20;9.57;;;-0.50;99.90;;;;;;5032309;28;20333;-51
2024/01/10 01:41:30;;;;;;;13.03;8.40;;;-0.70;99.90;;;;;;5031672;28;20226;-52
2024/01/10 01:43:56;;;;;;;13.90;8.47;;;-0.70;99.90;;;;;;5031491;28;20297;-54
2024/01/10 01:46:23;;;;;;;16.43;8.57;;;-0.70;99.90;;;;;;5031702;28;20230;-53
2024/01/10 01:48:52;;;;;;;14.20;7.93;;;-0.60;99.90;;;;;;5031628;28;20598;-53
2024/01/10 01:51:22;;;;;;;14.83;8.70;;;-0.50;99.90;;;;;;5031661;28;20198;-53
2024/01/10 01:53:50;;;;;;;14.37;8.63;;;-0.50;99.90;;;;;;5031581;28;20206;-52
2024/01/10 01:56:17;;;;;;;12.53;8.07;;;-0.40;99.90;;;;;;5031619;28;20305;-55
2024/01/10 01:58:46;;;;;;;16.27;8.63;;;-0.40;99.90;;;;;;5031389;28;20202;-52
2024/01/10 02:01:13;;;;;;;14.87;8.13;;;-0.40;99.90;;;;;;5023419;28;20305;-55
2024/01/10 02:03:40;;;;;;;16.33;8.80;;;-0.40;99.90;;;;;;5031223;28;20220;-53
2024/01/10 02:06:07;;;;;;;15.30;7.97;;;-0.40;99.90;;;;;;5031223;28;20464;-52
2024/01/10 02:08:36;;;;;;;13.43;8.30;;;-0.40;99.90;;;;;;5031545;28;20208;-53
2024/01/10 02:11:03;;;;;;;14.27;8.23;;;-0.50;99.90;;;;;;5031217;28;20429;-55
2024/01/10 02:13:31;;;;;;;13.13;7.57;;;-0.40;99.90;;;;;;5031291;28;20210;-55
2024/01/10 02:15:58;;;;;;;13.53;8.13;;;-0.40;99.90;;;;;;5031067;28;20226;-52
2024/01/10 02:18:25;;;;;;;12.53;8.27;;;-0.40;99.90;;;;;;5031156;28;20206;-54
2024/01/10 02:20:52;;;;;;;13.50;8.87;;;-0.40;99.90;;;;;;5031421;28;20218;-53
2024/01/10 02:23:19;;;;;;;14.23;9.10;;;-0.40;99.90;;;;;;5031284;28;20724;-53
2024/01/10 02:25:47;;;;;;;12.97;7.90;;;-0.40;99.90;;;;;;5031243;28;20253;-53
2024/01/10 02:28:14;;;;;;;13.63;7.90;;;-0.40;99.90;;;;;;5023773;28;20204;-54
2024/01/10 02:30:40;;;;;;;12.57;7.97;;;-0.40;99.90;;;;;;5031641;28;20272;-51
2024/01/10 02:33:07;;;;;;;16.20;8.50;;;-0.50;99.90;;;;;;5031060;28;20764;-54
2024/01/10 02:35:34;;;;;;;13.93;7.43;;;-0.60;99.90;;;;;;5031171;28;20248;-53
2024/01/10 02:38:01;;;;;;;14.40;8.30;;;-0.70;99.90;;;;;;5031053;28;20562;-52
2024/01/10 02:40:27;;;;;;;14.23;7.83;;;-0.80;99.90;;;;;;5032191;28;20229;-54
2024/01/10 02:42:55;;;;;;;12.53;7.50;;;-0.80;99.90;;;;;;5035146;28;20202;-53
2024/01/10 02:45:22;;;;;;;12.13;8.53;;;-0.90;99.90;;;;;;5035022;28;20206;-54
2024/01/10 02:47:49;;;;;;;13.90;8.33;;;-0.90;99.90;;;;;;5035096;28;20206;-54
2024/01/10 02:50:16;;;;;;;12.90;7.87;;;-0.90;99.90;;;;;;5035042;28;20206;-55
2024/01/10 02:52:43;;;;;;;13.60;8.07;;;-1.00;99.90;;;;;;5034890;28;20213;-52
2024/01/10 02:55:09;;;;;;;13.57;8.87;;;-1.00;99.90;;;;;;5034879;28;20635;-52
2024/01/10 02:57:36;;;;;;;12.40;8.07;;;-1.10;99.90;;;;;;5034957;28;20568;-52
2024/01/10 03:00:05;;;;;;;14.10;8.30;;;-1.10;99.90;;;;;;5035050;28;20209;-52
2024/01/10 03:02:32;;;;;;;13.67;8.10;;;-1.10;99.90;;;;;;5034606;28;20249;-53
2024/01/10 03:04:59;;;;;;;13.90;8.27;;;-1.10;99.90;;;;;;5034381;28;20595;-55
2024/01/10 03:07:25;;;;;;;13.97;8.70;;;-1.20;99.90;;;;;;5034599;28;20238;-56
2024/01/10 03:09:52;;;;;;;15.67;8.60;;;-1.10;99.90;;;;;;5034420;28;20616;-54
2024/01/10 03:12:19;;;;;;;12.87;8.37;;;-1.20;99.90;;;;;;5034621;28;20195;-55
2024/01/10 03:14:45;;;;;;;13.37;8.10;;;-1.30;99.90;;;;;;5034056;28;20699;-55
2024/01/10 03:17:14;;;;;;;15.63;9.10;;;-1.30;99.90;;;;;;5034286;28;20313;-54
2024/01/10 03:19:43;;;;;;;14.93;9.17;;;-1.40;99.90;;;;;;5034223;28;20206;-54
2024/01/10 03:22:10;;;;;;;13.33;8.40;;;-1.40;99.90;;;;;;5034322;28;20230;-54
2024/01/10 03:24:37;;;;;;;13.17;8.53;;;-1.40;99.90;;;;;;5033948;28;20297;-54
2024/01/10 03:27:05;;;;;;;14.57;8.27;;;-1.40;99.90;;;;;;5034227;28;20595;-53
2024/01/10 03:29:31;;;;;;;16.03;9.03;;;-1.40;99.90;;;;;;5034139;28;20203;-53
2024/01/10 03:31:58;;;;;;;14.87;8.73;;;-1.40;99.90;;;;;;5034029;28;20206;-53
2024/01/10 03:34:26;;;;;;;16.03;9.97;;;-1.40;99.90;;;;;;5034198;28;20206;-54
2024/01/10 03:36:53;;;;;;;16.50;9.60;;;-1.30;99.90;;;;;;5033733;28;20226;-54
2024/01/10 03:39:20;;;;;;;15.57;8.87;;;-1.30;99.90;;;;;;5034267;28;20218;-53
2024/01/10 03:41:47;;;;;;;17.23;9.80;;;-1.40;99.90;;;;;;5034282;28;20226;-54
2024/01/10 03:44:13;;;;;;;16.57;9.17;;;-1.50;99.90;;;;;;5033717;28;20248;-52
2024/01/10 03:46:40;;;;;;;16.57;9.57;;;-1.40;99.90;;;;;;5054111;22;20269;-59
2024/01/10 03:49:07;;;;;;;14.90;9.37;;;-1.40;99.90;;;;;;5023468;28;20214;-59
2024/01/10 03:51:35;;;;;;;16.13;9.47;;;-1.40;99.90;;;;;;5021830;28;20581;-60
2024/01/10 03:54:03;;;;;;;17.17;9.03;;;-1.40;99.90;;;;;;5023970;28;20634;-61
2024/01/10 03:56:29;;;;;;;13.80;8.53;;;-1.30;99.90;;;;;;5025725;28;20233;-60
2024/01/10 03:58:56;;;;;;;13.77;8.77;;;-1.20;99.90;;;;;;5024780;28;20233;-60
2024/01/10 04:01:23;;;;;;;13.87;8.43;;;-1.10;99.90;;;;;;5022378;28;20229;-61
2024/01/10 04:03:50;;;;;;;16.87;9.17;;;-0.90;99.90;;;;;;5022269;28;20211;-61
2024/01/10 04:06:17;;;;;;;12.63;8.27;;;-0.90;99.90;;;;;;5025683;28;20226;-61
2024/01/10 04:08:45;;;;;;;16.60;9.30;;;-0.80;99.90;;;;;;5025718;28;20210;-60
2024/01/10 04:11:11;;;;;;;14.60;9.03;;;-0.70;99.90;;;;;;5022707;28;20210;-59
2024/01/10 04:13:38;;;;;;;13.07;8.43;;;-0.60;99.90;;;;;;5021769;28;20211;-60
2024/01/10 04:16:05;;;;;;;13.83;9.13;;;-0.50;99.90;;;;;;5023708;28;20231;-60
2024/01/10 04:18:32;;;;;;;14.87;9.17;;;-0.50;99.90;;;;;;5025726;28;20206;-60
2024/01/10 04:20:58;;;;;;;16.20;9.03;;;-0.40;99.90;;;;;;5024409;28;20206;-60
2024/01/10 04:23:25;;;;;;;14.63;9.00;;;-0.40;99.90;;;;;;5021973;28;20214;-60
2024/01/10 04:25:53;;;;;;;15.50;9.20;;;-0.30;99.90;;;;;;5022001;28;20230;-60
2024/01/10 04:28:20;;;;;;;16.63;9.53;;;-0.20;99.90;;;;;;5025193;28;20633;-59
2024/01/10 04:30:47;;;;;;;16.27;9.57;;;-0.30;99.90;;;;;;5025398;28;20233;-60
2024/01/10 04:33:14;;;;;;;15.70;8.47;;;-0.20;99.90;;;;;;5022306;28;20689;-59
2024/01/10 04:35:40;;;;;;;13.77;8.50;;;-0.20;99.90;;;;;;5022167;28;20210;-60
2024/01/10 04:38:07;;;;;;;15.17;8.77;;;-0.30;99.90;;;;;;5024309;28;20207;-60
2024/01/10 04:40:34;;;;;;;16.03;8.67;;;-0.40;99.90;;;;;;5025313;28;20489;-60
2024/01/10 04:43:02;;;;;;;15.27;9.00;;;-0.50;99.90;;;;;;5023692;28;20252;-59
2024/01/10 04:45:28;;;;;;;16.80;9.30;;;-0.50;99.90;;;;;;5021705;28;20219;-59
2024/01/10 04:47:55;;;;;;;13.97;8.67;;;-0.50;99.90;;;;;;5022548;28;20207;-61
2024/01/10 04:50:22;;;;;;;16.17;9.40;;;-0.50;99.90;;;;;;5025253;28;20210;-59
2024/01/10 04:52:49;;;;;;;15.67;9.17;;;-0.40;99.90;;;;;;5025274;28;20203;-60
2024/01/10 04:55:16;;;;;;;16.93;9.70;;;-0.30;99.90;;;;;;5021974;28;20210;-60
2024/01/10 04:57:42;;;;;;;14.77;8.87;;;-0.30;99.90;;;;;;5021440;28;20223;-59
2024/01/10 05:00:11;;;;;;;17.70;10.37;;;-0.20;99.90;;;;;;5023729;28;20206;-61
2024/01/10 05:02:38;;;;;;;15.60;8.90;;;-0.10;99.90;;;;;;5024067;28;20230;-60
2024/01/10 05:05:06;;;;;;;12.60;8.43;;;-0.10;99.90;;;;;;5022317;28;20215;-60
2024/01/10 05:07:33;;;;;;;14.20;9.00;;;-0.20;99.90;;;;;;5021202;28;20277;-61
2024/01/10 05:09:59;;;;;;;15.23;8.50;;;-0.20;99.90;;;;;;5022321;28;20260;-61
2024/01/10 05:12:26;;;;;;;13.47;8.17;;;-0.10;99.90;;;;;;5024411;28;20256;-60
2024/01/10 05:14:53;;;;;;;16.30;8.83;;;-0.10;99.90;;;;;;5023810;28;20210;-60
2024/01/10 05:17:21;;;;;;;13.67;8.33;;;-0.10;99.90;;;;;;5020941;28;20223;-60
2024/01/10 05:19:47;;;;;;;14.00;8.10;;;-0.10;99.90;;;;;;5020969;28;20677;-60
2024/01/10 05:22:14;;;;;;;15.90;8.77;;;-0.10;99.90;;;;;;5023603;28;20534;-60
2024/01/10 05:24:41;;;;;;;13.60;8.60;;;-0.10;99.90;;;;;;5023762;28;20206;-60
2024/01/10 05:27:07;;;;;;;17.23;8.93;;;-0.10;99.90;;;;;;5021874;28;20259;-61
2024/01/10 05:29:33;;;;;;;13.70;8.27;;;-0.10;99.90;;;;;;5021085;28;20583;-61
2024/01/10 05:32:00;;;;;;;13.00;8.77;;;-0.10;99.90;;;;;;5021509;28;20703;-60
2024/01/10 05:34:28;;;;;;;15.23;9.03;;;-0.10;99.90;;;;;;5023775;28;20695;-60
2024/01/10 05:36:55;;;;;;;16.63;9.23;;;0.00;99.90;;;;;;5023742;28;20284;-62
2024/01/10 05:39:21;;;;;;;15.50;8.93;;;0.00;99.90;;;;;;5020648;28;20211;-61
2024/01/10 05:41:48;;;;;;;15.67;8.30;;;0.00;99.90;;;;;;5020528;28;20233;-62
2024/01/10 05:44:15;;;;;;;14.63;8.70;;;0.10;99.90;;;;;;5020520;28;20228;-60
2024/01/10 05:46:42;;;;;;;16.47;9.20;;;0.10;99.90;;;;;;5020223;28;20238;-59
2024/01/10 05:49:10;;;;;;;13.23;8.53;;;0.10;99.90;;;;;;5022529;28;20245;-62
2024/01/10 05:51:38;;;;;;;16.97;9.13;;;0.10;99.90;;;;;;5023702;28;20262;-60
2024/01/10 05:54:05;;;;;;;15.63;9.20;;;0.10;99.90;;;;;;5021848;28;20233;-60
2024/01/10 05:56:31;;;;;;;12.90;9.03;;;0.10;99.90;;;;;;5020005;28;20231;-61
2024/01/10 05:58:58;;;;;;;14.83;8.80;;;0.10;99.90;;;;;;5020789;28;20230;-61
2024/01/10 06:01:25;;;;;;;15.07;9.07;;;0.00;99.90;;;;;;5023660;28;20206;-60
2024/01/10 06:03:52;;;;;;;15.03;8.90;;;0.00;99.90;;;;;;5023137;28;20228;-59
2024/01/10 06:06:18;;;;;;;13.53;8.97;;;0.00;99.90;;;;;;5019799;28;20230;-60
2024/01/10 06:08:46;;;;;;;15.50;8.73;;;0.00;99.90;;;;;;5019924;28;20234;-60
2024/01/10 06:11:13;;;;;;;15.07;8.50;;;0.00;99.90;;;;;;5022757;28;20207;-61
2024/01/10 06:13:40;;;;;;;13.73;9.03;;;0.10;99.90;;;;;;5023154;28;20203;-60
2024/01/10 06:16:08;;;;;;;14.73;9.13;;;0.10;99.90;;;;;;5021296;28;20304;-60
2024/01/10 06:18:34;;;;;;;16.07;9.53;;;0.10;99.90;;;;;;5019809;28;20229;-56
2024/01/10 06:21:01;;;;;;;13.73;8.67;;;0.20;99.90;;;;;;5020810;28;20203;-56
2024/01/10 06:23:28;;;;;;;17.70;9.70;;;0.10;99.90;;;;;;5023374;28;20280;-57
2024/01/10 06:25:56;;;;;;;13.27;8.67;;;0.20;99.90;;;;;;5023605;28;20742;-58
2024/01/10 06:28:23;;;;;;;12.93;8.60;;;0.30;99.90;;;;;;5020553;28;20218;-57
2024/01/10 06:30:50;;;;;;;14.47;9.03;;;0.30;99.90;;;;;;5020225;28;20293;-55
2024/01/10 06:33:16;;;;;;;15.80;9.23;;;0.40;99.90;;;;;;5022589;28;20206;-56
2024/01/10 06:35:44;;;;;;;16.83;8.37;;;0.40;99.90;;;;;;5022921;28;20230;-55
2024/01/10 06:38:11;;;;;;;13.63;8.83;;;0.40;99.90;;;;;;5020693;28;20293;-56
2024/01/10 06:40:38;;;;;;;14.80;9.47;;;0.50;99.90;;;;;;5019643;28;20214;-55
2024/01/10 06:43:08;;;;;;;17.07;9.57;;;0.40;99.90;;;;;;5020618;28;20298;-57
2024/01/10 06:45:35;;;;;;;13.83;8.40;;;0.40;99.90;;;;;;5022895;28;20202;-57
2024/01/10 06:48:01;;;;;;;14.47;9.17;;;0.40;99.90;;;;;;5022021;28;20672;-56
2024/01/10 06:50:28;;;;;;;15.97;9.43;;;0.40;99.90;;;;;;5019702;28;20292;-56
2024/01/10 06:52:55;;;;;;;16.07;9.43;;;0.40;99.90;;;;;;5019532;28;20207;-57
2024/01/10 06:55:23;;;;;;;14.83;9.03;;;0.40;99.90;;;;;;5011684;28;20211;-55
2024/01/10 06:57:52;;;;;;;14.73;9.27;;;0.50;99.90;;;;;;5019560;28;20230;-55
2024/01/10 07:00:21;;;;;;;15.27;8.87;;;0.50;99.90;;;;;;5022836;28;20217;-66
2024/01/10 07:02:48;;;;;;;13.93;8.60;;;0.40;99.90;;;;;;5022736;28;20309;-56
2024/01/10 07:05:15;;;;;;;16.40;9.53;;;0.40;99.90;;;;;;5020524;28;20212;-57
2024/01/10 07:07:43;;;;;;;16.77;9.23;;;0.50;99.90;;;;;;5020609;28;20231;-57
2024/01/10 07:10:11;;;;;;;14.57;8.80;;;0.50;99.90;;;;;;5021845;28;20229;-56
2024/01/10 07:12:39;;;;;;;15.70;10.00;;;0.50;99.90;;;;;;5023267;28;20198;-56
2024/01/10 07:15:06;;;;;;;15.73;9.37;;;0.30;99.90;;;;;;5021241;28;20207;-56
2024/01/10 07:17:34;;;;;;;14.67;9.20;;;0.20;99.90;;;;;;5019772;28;20234;-56
2024/01/10 07:20:02;;;;;;;15.40;9.57;;;0.20;99.90;;;;;;5020281;28;20211;-58
2024/01/10 07:22:28;;;;;;;17.73;9.50;;;0.10;99.90;;;;;;5022801;28;20225;-57
2024/01/10 07:24:56;;;;;;;15.27;9.20;;;0.10;99.90;;;;;;5022814;28;20233;-58
2024/01/10 07:27:24;;;;;;;17.23;9.83;;;0.10;99.90;;;;;;5021671;28;20231;-58
2024/01/10 07:29:51;;;;;;;15.27;9.33;;;0.20;99.90;;;;;;5022856;28;20565;-56
2024/01/10 07:32:19;;;;;;;15.83;9.10;;;0.10;99.90;;;;;;5025871;28;20221;-57
2024/01/10 07:34:47;;;;;;;15.60;9.53;;;0.10;99.90;;;;;;5026253;28;20305;-56
2024/01/10 07:37:16;;;;;;;14.57;9.03;;;0.30;99.90;;;;;;5023542;28;20230;-55
2024/01/10 07:39:43;;;;;;;15.50;9.77;;;0.40;99.90;;;;;;5022882;28;20632;-56
2024/01/10 07:42:10;;;;;;;14.73;9.53;;;0.50;99.90;;;;;;5024327;28;20213;-56
2024/01/10 07:44:36;;;;;;;15.27;10.10;;;0.60;99.90;;;;;;5026171;28;20662;-57
2024/01/10 07:47:03;;;;;;;17.20;10.13;;;0.70;99.90;;;;;;5024953;28;20830;-57
2024/01/10 07:49:32;;;;;;;15.97;10.10;;;0.70;99.90;;;;;;5022930;28;20250;-57
2024/01/10 07:52:00;;;;;;;18.70;10.47;;;0.70;99.90;;;;;;5023027;28;20637;-64
2024/01/10 07:54:26;;;;;;;17.37;10.23;;;0.60;99.90;;;;;;5026730;28;20203;-61
2024/01/10 07:56:54;;;;;;;22.43;10.67;;;0.60;99.90;;;;;;5026219;28;20226;-57
2024/01/10 07:59:21;;;;;;;15.83;9.97;;;0.60;99.90;;;;;;5022840;28;20636;-58
2024/01/10 08:01:56;;;;;;;16.40;10.63;;;0.60;99.90;;;;;;5022787;28;20504;-57
2024/01/10 08:04:23;;;;;;;19.10;11.13;;;0.60;99.90;;;;;;5022453;28;20320;-59
2024/01/10 08:06:50;;;;;;;17.63;10.40;;;0.70;99.90;;;;;;5022560;28;20760;-58
2024/01/10 08:09:18;;;;;;;18.20;11.03;;;0.70;99.90;;;;;;5024860;28;20293;-58
2024/01/10 08:11:45;;;;;;;16.83;10.33;;;0.80;99.90;;;;;;5025886;28;20210;-60
2024/01/10 08:14:12;;;;;;;18.80;10.67;;;0.90;99.90;;;;;;5023644;28;20211;-60
2024/01/10 08:16:39;;;;;;;18.33;10.60;;;0.90;99.90;;;;;;5022665;28;20261;-58
2024/01/10 08:19:06;;;;;;;17.00;10.90;;;0.80;99.90;;;;;;5023549;28;20214;-56
2024/01/10 08:21:33;;;;;;;19.77;10.07;;;0.70;99.90;;;;;;5025588;28;20532;-61
2024/01/10 08:23:59;;;;;;;15.33;9.83;;;0.70;99.90;;;;;;5024795;28;20222;-59
2024/01/10 08:26:28;;;;;;;16.23;10.47;;;0.60;99.90;;;;;;5007959;28;20235;-63
2024/01/10 08:28:54;;;;;;;16.73;10.33;;;0.70;99.90;;;;;;5008459;28;20225;-62
2024/01/10 08:31:22;;;;;;;18.63;10.33;;;0.80;99.90;;;;;;5012206;28;20215;-65
2024/01/10 08:33:49;;;;;;;16.00;10.87;;;0.60;99.90;;;;;;5008617;28;20211;-63
2024/01/10 08:36:16;;;;;;;18.87;10.47;;;0.70;99.90;;;;;;5011996;28;20591;-64
2024/01/10 08:38:43;;;;;;;20.40;11.03;;;0.80;99.90;;;;;;5013493;28;20676;-66
2024/01/10 08:41:11;;;;;;;17.80;10.63;;;0.90;99.90;;;;;;5013793;28;20293;-69
2024/01/10 08:43:39;;;;;;;19.63;11.00;;;1.00;99.90;;;;;;5013465;28;20226;-66
2024/01/10 08:46:07;;;;;;;16.50;10.03;;;1.00;99.90;;;;;;5012995;28;20321;-61
2024/01/10 08:48:34;;;;;;;18.57;11.17;;;1.10;99.90;;;;;;5013044;28;20240;-64
2024/01/10 08:51:01;;;;;;;17.80;10.97;;;1.10;99.90;;;;;;5018092;28;20665;-62
2024/01/10 08:53:28;;;;;;;20.97;10.23;;;1.20;99.90;;;;;;5013233;28;20238;-62
2024/01/10 08:55:54;;;;;;;16.07;10.17;;;1.20;99.90;;;;;;5013004;28;20230;-66
2024/01/10 08:58:21;;;;;;;15.40;10.50;;;1.40;99.90;;;;;;5013231;28;20206;-69
2024/01/10 09:00:49;;;;;;;15.00;10.47;;;1.50;99.90;;;;;;5013809;28;20238;-68
2024/01/10 09:03:16;;;;;;;19.33;11.67;;;1.40;99.90;;;;;;5012695;28;20321;-66
2024/01/10 09:05:43;;;;;;;17.33;11.20;;;1.40;99.90;;;;;;5012865;28;20231;-62
2024/01/10 09:08:09;;;;;;;15.70;10.67;;;1.40;99.90;;;;;;5013502;28;20535;-62
2024/01/10 09:10:38;;;;;;;20.90;12.00;;;1.20;99.90;;;;;;5013537;28;20218;-57
2024/01/10 09:13:05;;;;;;;21.33;11.57;;;1.20;99.90;;;;;;5012780;28;20683;-65
2024/01/10 09:15:31;;;;;;;18.70;11.47;;;1.20;99.90;;;;;;5012329;28;20210;-59
2024/01/10 09:18:00;;;;;;;18.30;11.07;;;1.30;99.90;;;;;;5020896;28;20293;-56
2024/01/10 09:20:27;;;;;;;16.23;10.70;;;1.20;99.90;;;;;;5013216;28;20812;-56
2024/01/10 09:22:54;;;;;;;19.20;11.43;;;1.10;99.90;;;;;;5020851;28;20223;-60
2024/01/10 09:25:21;;;;;;;18.37;11.47;;;1.10;99.90;;;;;;5023408;28;20230;-55
2024/01/10 09:27:47;;;;;;;21.20;12.57;;;1.10;99.90;;;;;;5024256;28;20222;-57
2024/01/10 09:30:16;;;;;;;19.57;12.63;;;1.10;99.90;;;;;;5022051;28;20213;-56
2024/01/10 09:32:43;;;;;;;17.00;11.33;;;0.90;99.90;;;;;;5020679;28;20290;-57
2024/01/10 09:35:12;;;;;;;21.60;12.17;;;0.80;99.90;;;;;;5021790;28;20214;-56
2024/01/10 09:37:40;;;;;;;20.17;11.97;;;0.70;99.90;;;;;;5023992;28;20332;-56
2024/01/10 09:40:08;;;;;;;20.23;12.70;;;0.70;99.90;;;;;;5023039;28;20199;-57
2024/01/10 09:42:36;;;;;;;19.13;12.27;;;0.70;99.90;;;;;;5021143;28;20207;-55
2024/01/10 09:45:05;;;;;;;18.10;12.40;;;0.80;99.90;;;;;;5020865;28;20223;-56
2024/01/10 09:47:33;;;;;;;19.83;11.83;;;0.80;99.90;;;;;;5024140;28;20301;-57
2024/01/10 09:50:02;;;;;;;21.07;12.90;;;0.80;99.90;;;;;;5023434;28;20209;-58
2024/01/10 09:52:33;;;;;;;19.53;12.83;;;0.70;99.90;;;;;;5013074;28;20210;-56
2024/01/10 09:55:01;;;;;;;22.20;12.67;;;0.80;99.90;;;;;;5020527;28;20894;-57
2024/01/10 09:57:28;;;;;;;19.27;12.33;;;0.90;99.90;;;;;;5013065;28;20223;-58
2024/01/10 09:59:55;;;;;;;20.53;13.10;;;1.10;99.90;;;;;;5020847;28;20216;-56
2024/01/10 10:02:23;;;;;;;20.27;12.53;;;1.30;99.90;;;;;;5023145;28;20249;-56
2024/01/10 10:04:55;;;;;;;22.10;12.67;;;1.40;99.90;;;;;;5023460;28;20308;-56
2024/01/10 10:07:22;;;;;;;21.23;12.60;;;1.60;99.90;;;;;;5020732;28;20716;-56
2024/01/10 10:09:50;;;;;;;18.90;12.07;;;1.80;99.90;;;;;;5020107;28;20206;-59
2024/01/10 10:12:16;;;;;;;18.83;11.70;;;1.80;99.90;;;;;;5021902;28;20207;-58
2024/01/10 10:14:43;;;;;;;20.30;12.97;;;1.70;99.90;;;;;;5023377;28;20210;-57
2024/01/10 10:17:15;;;;;;;19.60;13.40;;;1.60;99.90;;;;;;5022425;28;20707;-54
2024/01/10 10:19:42;;;;;;;19.47;12.80;;;1.50;99.90;;;;;;5020449;28;20229;-62
2024/01/10 10:22:10;;;;;;;23.40;14.80;;;1.60;99.90;;;;;;5020825;28;20210;-56
2024/01/10 10:24:36;;;;;;;20.40;12.20;;;1.60;99.90;;;;;;5023149;28;20218;-58
2024/01/10 10:27:10;;;;;;;22.07;13.00;;;1.70;99.90;;;;;;5009503;28;20497;-54
2024/01/10 10:29:37;;;;;;;27.53;17.80;;;1.80;99.90;;;;;;5023513;28;20238;-53
2024/01/10 10:32:04;;;;;;;20.83;13.00;;;1.90;99.90;;;;;;5022706;28;20209;-54
2024/01/10 10:34:33;;;;;;;20.30;13.07;;;2.00;99.90;;;;;;5019558;28;20470;-55
2024/01/10 10:36:59;;;;;;;22.47;13.57;;;2.00;99.90;;;;;;5019511;28;20227;-62
2024/01/10 10:39:26;;;;;;;22.57;13.37;;;2.00;99.90;;;;;;5022836;28;20198;-64
2024/01/10 10:41:54;;;;;;;18.90;12.60;;;2.10;99.90;;;;;;5023233;28;20256;-64
2024/01/10 10:44:25;;;;;;;19.33;12.13;;;2.00;99.90;;;;;;5014571;28;20754;-60
2024/01/10 10:46:55;;;;;;;21.50;13.07;;;2.10;99.90;;;;;;5022998;28;20221;-64
2024/01/10 10:49:31;;;;;;;20.43;13.07;;;2.20;99.90;;;;;;5020386;28;20233;-62
2024/01/10 10:52:00;;;;;;;22.30;13.00;;;2.30;99.90;;;;;;5019310;28;20213;-62
2024/01/10 10:54:30;;;;;;;20.63;13.40;;;2.30;99.90;;;;;;5022784;28;20199;-62
2024/01/10 10:57:00;;;;;;;20.43;13.73;;;2.50;99.90;;;;;;5023024;28;20222;-66
2024/01/10 10:59:29;;;;;;;20.73;13.23;;;2.60;99.90;;;;;;5019332;28;20629;-61
2024/01/10 11:01:57;;;;;;;23.40;14.23;;;2.70;99.90;;;;;;5021088;28;20198;-63
2024/01/10 11:04:23;;;;;;;27.83;17.93;;;2.90;99.90;;;;;;5025346;28;20230;-61
2024/01/10 11:06:50;;;;;;;21.97;14.03;;;3.00;99.90;;;;;;5026990;28;20218;-55
2024/01/10 11:09:22;;;;;;;19.57;12.63;;;3.00;99.90;;;;;;5024481;28;20680;-54
2024/01/10 11:12:17;;;;;;;20.43;13.90;;;2.90;99.90;;;;;;5023772;28;20209;-55
2024/01/10 11:15:03;;;;;;;23.23;14.37;;;2.90;99.90;;;;;;5017008;28;20226;-55
2024/01/10 11:17:52;;;;;;;21.93;14.07;;;3.00;99.90;;;;;;5015295;28;20237;-55
2024/01/10 11:20:42;;;;;;;23.13;13.10;;;3.00;99.90;;;;;;5025319;28;20265;-54
2024/01/10 11:23:33;;;;;;;23.50;14.43;;;3.10;99.90;;;;;;5023938;28;20268;-54
2024/01/10 11:26:00;;;;;;;20.63;12.97;;;3.10;99.90;;;;;;5023605;28;20731;-57
2024/01/10 11:28:27;;;;;;;19.80;12.70;;;3.10;99.90;;;;;;5027048;28;20234;-55
2024/01/10 11:30:56;;;;;;;19.97;13.20;;;3.20;99.90;;;;;;5027201;28;20206;-54
2024/01/10 11:33:25;;;;;;;19.93;13.43;;;3.00;99.90;;;;;;5023333;28;20210;-54
2024/01/10 11:36:09;;;;;;;20.43;13.87;;;3.00;99.90;;;;;;5022750;28;20222;-55
2024/01/10 11:38:40;;;;;;;26.97;14.30;;;2.90;99.90;;;;;;5016052;28;20207;-55
2024/01/10 11:41:08;;;;;;;21.23;13.87;;;3.00;99.90;;;;;;5023272;28;20296;-54
2024/01/10 11:43:35;;;;;;;22.43;14.43;;;3.10;99.90;;;;;;5026049;28;20625;-55
2024/01/10 11:46:04;;;;;;;22.60;14.70;;;3.30;99.90;;;;;;5025755;28;20711;-55
2024/01/10 11:48:33;;;;;;;23.83;14.33;;;3.50;99.90;;;;;;5015039;28;20617;-55
2024/01/10 11:51:00;;;;;;;22.90;14.50;;;3.40;99.90;;;;;;5022899;28;20265;-55
2024/01/10 11:53:45;;;;;;;22.23;14.97;;;3.40;99.90;;;;;;5025684;28;20294;-55
2024/01/10 11:56:15;;;;;;;19.47;13.30;;;3.50;99.90;;;;;;5024966;28;20305;-55
2024/01/10 11:58:54;;;;;;;21.17;13.43;;;3.50;99.90;;;;;;5022393;28;20300;-56
2024/01/10 12:01:23;;;;;;;23.70;14.57;;;3.50;99.90;;;;;;5024464;28;20685;-54
2024/01/10 12:03:53;;;;;;;24.47;14.53;;;3.60;99.90;;;;;;5025826;28;20726;-56
2024/01/10 12:06:21;;;;;;;23.33;14.93;;;3.60;99.90;;;;;;5023466;28;20586;-60
2024/01/10 12:08:48;;;;;;;25.17;15.93;;;3.80;99.90;;;;;;5022387;28;20203;-62
2024/01/10 12:11:15;;;;;;;20.70;14.20;;;3.90;99.90;;;;;;5023829;28;20210;-62
2024/01/10 12:13:42;;;;;;;23.27;15.00;;;4.00;99.90;;;;;;5025440;28;20198;-58
2024/01/10 12:16:09;;;;;;;23.13;14.60;;;4.00;99.90;;;;;;5024958;28;20257;-58
2024/01/10 12:18:37;;;;;;;23.37;14.23;;;4.00;99.90;;;;;;5022139;28;20203;-58
2024/01/10 12:21:04;;;;;;;21.50;14.77;;;4.10;99.90;;;;;;5022233;28;20207;-58
2024/01/10 12:23:31;;;;;;;23.60;15.40;;;4.20;99.80;;;;;;5013590;28;20198;-60
2024/01/10 12:25:58;;;;;;;21.83;14.53;;;4.20;99.90;;;;;;5022311;28;20289;-58
2024/01/10 12:28:25;;;;;;;20.93;15.10;;;4.30;99.90;;;;;;5024787;28;20619;-59
2024/01/10 12:30:53;;;;;;;21.63;14.30;;;4.50;99.70;;;;;;5025668;28;20286;-57
2024/01/10 12:33:23;;;;;;;20.80;14.47;;;4.50;99.60;;;;;;5015865;28;20215;-65
2024/01/10 12:36:08;;;;;;;27.10;14.97;;;4.60;99.70;;;;;;5022344;28;20713;-58
2024/01/10 12:38:35;;;;;;;22.90;14.77;;;4.60;99.50;;;;;;5014198;28;20207;-56
2024/01/10 12:41:02;;;;;;;21.43;14.40;;;4.60;99.60;;;;;;5022211;28;20207;-58